sensor_id;sensor_type;location;lat;lon;timestamp;P1;durP1;ratioP1;P2;durP2;ratioP2
26177;SDS011;13924;47.670;10.310;2023-08-06T00:00:38;4.8;;;4.4;;
26177;SDS011;13924;47.670;10.310;2023-08-06T00:15:39;4.3;;;3.9;;
26177;SDS011;13924;47.670;10.310;2023-08-06T00:30:38;4.9;;;4.5;;
26177;SDS011;13924;47.670;10.310;2023-08-06T00:45:40;5.2;;;4.2;;
26177;SDS011;13924;47.670;10.310;2023-08-06T01:00:40;4.4;;;4.0;;
26177;SDS011;13924;47.670;10.310;2023-08-06T01:01:30;4.7;;;4.0;;
26177;SDS011;13924;47.670;10.310;2023-08-06T01:15:42;4.4;;;4.0;;
26177;SDS011;13924;47.670;10.310;2023-08-06T01:30:42;4.2;;;3.4;;
26177;SDS011;13924;47.670;10.310;2023-08-06T01:45:42;3.5;;;3.2;;
26177;SDS011;13924;47.670;10.310;2023-08-06T02:00:43;3.5;;;3.2;;
26177;SDS011;13924;47.670;10.310;2023-08-06T02:15:43;3.5;;;3.2;;
26177;SDS011;13924;47.670;10.310;2023-08-06T02:30:49;3.4;;;2.8;;
26177;SDS011;13924;47.670;10.310;2023-08-06T02:45:44;3.1;;;2.8;;
26177;SDS011;13924;47.670;10.310;2023-08-06T03:00:45;3.4;;;2.6;;
26177;SDS011;13924;47.670;10.310;2023-08-06T03:15:51;3.0;;;2.6;;
26177;SDS011;13924;47.670;10.310;2023-08-06T03:30:47;5.4;;;3.1;;
26177;SDS011;13924;47.670;10.310;2023-08-06T03:45:47;3.1;;;2.6;;
26177;SDS011;13924;47.670;10.310;2023-08-06T03:59:03;2.6;;;1.8;;
26177;SDS011;13924;47.670;10.310;2023-08-06T04:14:03;2.5;;;2.3;;
26177;SDS011;13924;47.670;10.310;2023-08-06T04:29:04;3.7;;;2.5;;
26177;SDS011;13924;47.670;10.310;2023-08-06T04:44:04;3.3;;;2.0;;
26177;SDS011;13924;47.670;10.310;2023-08-06T04:59:05;2.6;;;2.1;;
26177;SDS011;13924;47.670;10.310;2023-08-06T05:14:05;2.8;;;1.9;;
26177;SDS011;13924;47.670;10.310;2023-08-06T05:29:06;2.1;;;1.4;;
26177;SDS011;13924;47.670;10.310;2023-08-06T05:44:08;3.8;;;1.8;;
26177;SDS011;13924;47.670;10.310;2023-08-06T05:59:07;1.9;;;1.3;;
26177;SDS011;13924;47.670;10.310;2023-08-06T06:14:08;4.3;;;1.6;;
26177;SDS011;13924;47.670;10.310;2023-08-06T06:29:10;1.6;;;1.0;;
26177;SDS011;13924;47.670;10.310;2023-08-06T06:44:09;1.8;;;0.6;;
26177;SDS011;13924;47.670;10.310;2023-08-06T06:59:10;1.4;;;0.6;;
26177;SDS011;13924;47.670;10.310;2023-08-06T07:14:11;3.1;;;0.7;;
26177;SDS011;13924;47.670;10.310;2023-08-06T07:29:12;1.7;;;0.4;;
26177;SDS011;13924;47.670;10.310;2023-08-06T07:44:12;1.3;;;0.3;;
26177;SDS011;13924;47.670;10.310;2023-08-06T07:59:13;2.7;;;0.5;;
26177;SDS011;13924;47.670;10.310;2023-08-06T08:14:14;0.7;;;0.3;;
26177;SDS011;13924;47.670;10.310;2023-08-06T08:29:16;1.6;;;0.3;;
26177;SDS011;13924;47.670;10.310;2023-08-06T08:44:20;0.2;;;0.1;;
26177;SDS011;13924;47.670;10.310;2023-08-06T08:59:16;1.5;;;0.4;;
26177;SDS011;13924;47.670;10.310;2023-08-06T09:14:18;0.5;;;0.2;;
26177;SDS011;13924;47.670;10.310;2023-08-06T09:29:18;1.3;;;0.2;;
26177;SDS011;13924;47.670;10.310;2023-08-06T09:44:19;2.0;;;0.4;;
26177;SDS011;13924;47.670;10.310;2023-08-06T09:59:18;0.1;;;0.1;;
26177;SDS011;13924;47.670;10.310;2023-08-06T10:14:21;1.0;;;0.2;;
26177;SDS011;13924;47.670;10.310;2023-08-06T10:29:36;1.5;;;0.2;;
26177;SDS011;13924;47.670;10.310;2023-08-06T10:44:21;0.4;;;0.1;;
26177;SDS011;13924;47.670;10.310;2023-08-06T10:59:21;0.2;;;0.1;;
26177;SDS011;13924;47.670;10.310;2023-08-06T11:14:26;0.2;;;0.0;;
26177;SDS011;13924;47.670;10.310;2023-08-06T11:29:22;0.1;;;0.1;;
26177;SDS011;13924;47.670;10.310;2023-08-06T11:44:23;0.2;;;0.1;;
26177;SDS011;13924;47.670;10.310;2023-08-06T11:59:24;0.2;;;0.1;;
26177;SDS011;13924;47.670;10.310;2023-08-06T12:14:24;1.2;;;0.1;;
26177;SDS011;13924;47.670;10.310;2023-08-06T12:29:25;0.1;;;0.1;;
26177;SDS011;13924;47.670;10.310;2023-08-06T12:44:26;0.3;;;0.2;;
26177;SDS011;13924;47.670;10.310;2023-08-06T12:59:26;0.4;;;0.2;;
26177;SDS011;13924;47.670;10.310;2023-08-06T13:14:27;0.9;;;0.2;;
26177;SDS011;13924;47.670;10.310;2023-08-06T13:29:27;0.3;;;0.3;;
26177;SDS011;13924;47.670;10.310;2023-08-06T13:44:28;0.3;;;0.3;;
26177;SDS011;13924;47.670;10.310;2023-08-06T13:59:29;1.2;;;0.2;;
26177;SDS011;13924;47.670;10.310;2023-08-06T14:14:30;0.1;;;0.1;;
26177;SDS011;13924;47.670;10.310;2023-08-06T14:29:30;0.3;;;0.2;;
26177;SDS011;13924;47.670;10.310;2023-08-06T14:44:31;0.4;;;0.3;;
26177;SDS011;13924;47.670;10.310;2023-08-06T14:59:31;0.6;;;0.5;;
26177;SDS011;13924;47.670;10.310;2023-08-06T15:14:32;1.3;;;0.6;;
26177;SDS011;13924;47.670;10.310;2023-08-06T15:29:33;1.9;;;0.7;;
26177;SDS011;13924;47.670;10.310;2023-08-06T15:44:34;0.8;;;0.5;;
26177;SDS011;13924;47.670;10.310;2023-08-06T15:59:34;0.7;;;0.6;;
26177;SDS011;13924;47.670;10.310;2023-08-06T16:14:36;0.7;;;0.7;;
26177;SDS011;13924;47.670;10.310;2023-08-06T16:29:36;3.3;;;0.6;;
26177;SDS011;13924;47.670;10.310;2023-08-06T16:44:37;1.0;;;0.7;;
26177;SDS011;13924;47.670;10.310;2023-08-06T16:59:39;0.7;;;0.7;;
26177;SDS011;13924;47.670;10.310;2023-08-06T17:14:40;1.0;;;0.8;;
26177;SDS011;13924;47.670;10.310;2023-08-06T17:29:39;1.4;;;0.9;;
26177;SDS011;13924;47.670;10.310;2023-08-06T17:44:39;2.2;;;1.1;;
26177;SDS011;13924;47.670;10.310;2023-08-06T17:59:41;1.4;;;1.2;;
26177;SDS011;13924;47.670;10.310;2023-08-06T18:14:43;2.2;;;1.3;;
26177;SDS011;13924;47.670;10.310;2023-08-06T18:29:41;2.0;;;1.4;;
26177;SDS011;13924;47.670;10.310;2023-08-06T18:44:46;1.9;;;1.2;;
26177;SDS011;13924;47.670;10.310;2023-08-06T18:59:42;3.8;;;1.9;;
26177;SDS011;13924;47.670;10.310;2023-08-06T19:14:45;3.3;;;1.9;;
26177;SDS011;13924;47.670;10.310;2023-08-06T19:29:48;2.4;;;1.3;;
26177;SDS011;13924;47.670;10.310;2023-08-06T19:44:44;1.9;;;1.7;;
26177;SDS011;13924;47.670;10.310;2023-08-06T19:59:47;2.4;;;1.7;;
26177;SDS011;13924;47.670;10.310;2023-08-06T20:14:47;2.7;;;1.4;;
26177;SDS011;13924;47.670;10.310;2023-08-06T20:29:47;2.4;;;1.8;;
26177;SDS011;13924;47.670;10.310;2023-08-06T20:44:48;2.1;;;1.6;;
26177;SDS011;13924;47.670;10.310;2023-08-06T20:59:47;2.1;;;1.4;;
26177;SDS011;13924;47.670;10.310;2023-08-06T21:14:48;2.8;;;2.0;;
26177;SDS011;13924;47.670;10.310;2023-08-06T21:29:49;6.2;;;2.0;;
26177;SDS011;13924;47.670;10.310;2023-08-06T21:44:49;4.3;;;2.6;;
26177;SDS011;13924;47.670;10.310;2023-08-06T21:59:50;3.3;;;2.4;;
26177;SDS011;13924;47.670;10.310;2023-08-06T22:00:42;3.5;;;2.3;;
26177;SDS011;13924;47.670;10.310;2023-08-06T22:15:39;3.0;;;2.1;;
26177;SDS011;13924;47.670;10.310;2023-08-06T22:30:40;6.4;;;2.6;;
26177;SDS011;13924;47.670;10.310;2023-08-06T22:45:39;5.0;;;3.0;;
26177;SDS011;13924;47.670;10.310;2023-08-06T23:00:45;4.7;;;2.6;;
26177;SDS011;13924;47.670;10.310;2023-08-06T23:15:39;2.5;;;1.9;;
26177;SDS011;13924;47.670;10.310;2023-08-06T23:30:42;1.9;;;1.1;;
26177;SDS011;13924;47.670;10.310;2023-08-06T23:45:40;3.4;;;1.3;;
